createdAt,value
2022-12-05T00:00:29.679Z,1.70
2022-12-05T00:02:34.692Z,1.70
2022-12-05T00:04:39.715Z,1.70
2022-12-05T00:06:46.015Z,1.70
2022-12-05T00:08:52.098Z,1.80
2022-12-05T00:10:57.638Z,1.70
2022-12-05T00:13:02.889Z,1.70
2022-12-05T00:15:13.205Z,1.70
2022-12-05T00:17:20.761Z,1.70
2022-12-05T00:19:25.755Z,1.70
2022-12-05T00:21:33.539Z,1.70
2022-12-05T00:23:38.853Z,1.70
2022-12-05T00:25:45.280Z,1.70
2022-12-05T00:27:50.313Z,1.70
2022-12-05T00:29:56.115Z,1.80
2022-12-05T00:32:01.742Z,1.70
2022-12-05T00:34:09.517Z,1.70
2022-12-05T00:36:16.989Z,1.70
2022-12-05T00:38:21.906Z,1.70
2022-12-05T00:40:27.216Z,1.70
2022-12-05T00:42:32.179Z,1.70
2022-12-05T00:44:37.403Z,1.70
2022-12-05T00:46:43.423Z,1.70
2022-12-05T00:48:48.963Z,1.70
2022-12-05T00:51:04.181Z,1.70
2022-12-05T00:53:09.522Z,1.70
2022-12-05T00:55:14.714Z,1.70
2022-12-05T00:57:20.310Z,1.70
2022-12-05T00:59:26.161Z,1.70
2022-12-05T01:01:33.636Z,1.70
2022-12-05T01:03:39.091Z,1.70
2022-12-05T01:05:44.086Z,1.70
2022-12-05T01:07:52.140Z,1.70
2022-12-05T01:09:58.594Z,1.70
2022-12-05T01:12:03.845Z,1.70
2022-12-05T01:14:08.991Z,1.70
2022-12-05T01:16:19.051Z,1.70
2022-12-05T01:18:25.281Z,1.70
2022-12-05T01:20:30.613Z,1.70
2022-12-05T01:22:35.945Z,1.70
2022-12-05T01:24:43.899Z,1.70
2022-12-05T01:26:50.047Z,1.70
2022-12-05T01:28:55.443Z,1.70
2022-12-05T01:31:00.996Z,1.70
2022-12-05T01:33:06.142Z,1.70
2022-12-05T01:35:12.599Z,1.70
2022-12-05T01:37:17.755Z,1.60
2022-12-05T01:39:23.036Z,1.60
2022-12-05T01:41:35.541Z,1.60
2022-12-05T01:44:00.765Z,1.70
2022-12-05T01:46:05.910Z,1.70
2022-12-05T01:48:17.423Z,1.60
2022-12-05T01:50:23.045Z,1.60
2022-12-05T01:52:32.509Z,1.60
2022-12-05T01:54:40.187Z,1.60
2022-12-05T01:56:53.518Z,1.60
2022-12-05T01:59:00.087Z,1.60
2022-12-05T02:01:05.189Z,1.60
2022-12-05T02:03:16.389Z,1.60
2022-12-05T02:05:27.793Z,1.60
2022-12-05T02:07:33.634Z,1.50
2022-12-05T02:09:39.481Z,1.60
2022-12-05T02:11:55.255Z,1.60
2022-12-05T02:14:17.157Z,1.60
2022-12-05T02:16:29.827Z,1.50
2022-12-05T02:18:57.487Z,1.50
2022-12-05T02:21:13.226Z,1.50
2022-12-05T02:24:04.338Z,1.50
2022-12-05T02:26:56.687Z,1.50
2022-12-05T02:29:59.789Z,1.50
2022-12-05T02:32:13.702Z,1.50
2022-12-05T02:34:29.138Z,1.60
2022-12-05T02:36:47.429Z,1.60
2022-12-05T02:39:02.319Z,1.50
2022-12-05T02:41:18.292Z,1.50
2022-12-05T02:43:32.386Z,1.50
2022-12-05T02:45:42.374Z,1.50
2022-12-05T02:47:52.724Z,1.60
2022-12-05T02:50:00.281Z,1.60
2022-12-05T02:52:12.764Z,1.60
2022-12-05T02:54:22.671Z,1.60
2022-12-05T02:56:28.421Z,1.50
2022-12-05T02:58:39.098Z,1.40
2022-12-05T03:00:50.348Z,1.50
2022-12-05T03:03:01.128Z,1.50
2022-12-05T03:05:22.403Z,1.50
2022-12-05T03:07:31.996Z,1.50
2022-12-05T03:09:40.846Z,1.50
2022-12-05T03:11:50.759Z,1.50
2022-12-05T03:14:00.878Z,1.50
2022-12-05T03:16:14.290Z,1.50
2022-12-05T03:18:26.747Z,1.50
2022-12-05T03:20:36.567Z,1.50
2022-12-05T03:22:47.894Z,1.60
2022-12-05T03:24:53.154Z,1.50
2022-12-05T03:27:09.969Z,1.50
2022-12-05T03:29:27.670Z,1.60
2022-12-05T03:31:42.052Z,1.60
2022-12-05T03:33:50.750Z,1.50
2022-12-05T03:36:05.524Z,1.60
2022-12-05T03:38:16.103Z,1.60
2022-12-05T03:40:33.478Z,1.60
2022-12-05T03:42:43.112Z,1.60
2022-12-05T03:44:55.737Z,1.60
2022-12-05T03:47:09.670Z,1.60
2022-12-05T03:49:21.035Z,1.60
2022-12-05T03:51:34.152Z,1.60
2022-12-05T03:53:46.782Z,1.60
2022-12-05T03:56:02.893Z,1.60
2022-12-05T03:58:14.427Z,1.60
2022-12-05T04:00:23.025Z,1.60
2022-12-05T04:02:45.738Z,1.60
2022-12-05T04:04:57.377Z,1.70
2022-12-05T04:07:07.760Z,1.70
2022-12-05T04:09:18.617Z,1.70
2022-12-05T04:11:28.092Z,1.70
2022-12-05T04:13:39.053Z,1.70
2022-12-05T04:15:56.416Z,1.70
2022-12-05T04:18:04.231Z,1.70
2022-12-05T04:20:26.567Z,1.70
2022-12-05T04:22:32.280Z,1.70
2022-12-05T04:24:50.169Z,1.70
2022-12-05T04:27:01.253Z,1.70
2022-12-05T04:29:14.085Z,1.70
2022-12-05T04:33:41.068Z,1.80
2022-12-05T04:35:53.636Z,1.80
2022-12-05T04:38:05.973Z,1.80
2022-12-05T04:40:17.438Z,1.80
2022-12-05T04:42:26.298Z,1.80
2022-12-05T04:44:37.509Z,1.80
2022-12-05T04:46:48.120Z,1.80
2022-12-05T04:49:03.493Z,1.90
2022-12-05T04:51:12.911Z,1.80
2022-12-05T04:53:19.729Z,1.80
2022-12-05T04:55:29.600Z,1.80
2022-12-05T04:57:40.258Z,1.80
2022-12-05T04:59:45.322Z,1.80
2022-12-05T05:01:58.306Z,1.90
2022-12-05T05:04:15.718Z,1.80
2022-12-05T05:06:21.453Z,1.80
2022-12-05T05:08:30.258Z,1.80
2022-12-05T05:10:42.680Z,1.90
2022-12-05T05:12:47.922Z,1.90
2022-12-05T05:14:53.358Z,1.90
2022-12-05T05:16:59.021Z,1.90
2022-12-05T05:19:08.509Z,1.90
2022-12-05T05:21:21.702Z,1.90
2022-12-05T05:23:27.369Z,1.90
2022-12-05T05:25:32.877Z,1.90
2022-12-05T05:27:37.806Z,1.90
2022-12-05T05:29:43.648Z,1.90
2022-12-05T05:31:49.106Z,1.90
2022-12-05T05:33:56.182Z,1.90
2022-12-05T05:36:06.762Z,1.90
2022-12-05T05:38:11.721Z,2.00
2022-12-05T05:40:17.451Z,1.90
2022-12-05T05:42:22.468Z,1.90
2022-12-05T05:44:27.830Z,1.90
2022-12-05T05:46:35.309Z,2.00
2022-12-05T05:48:40.940Z,1.90
2022-12-05T05:50:45.894Z,2.00
2022-12-05T05:52:54.954Z,2.00
2022-12-05T05:55:00.026Z,2.00
2022-12-05T05:57:05.001Z,2.00
2022-12-05T05:59:10.363Z,2.00
2022-12-05T06:01:18.989Z,2.00
2022-12-05T06:03:24.425Z,2.00
2022-12-05T06:05:29.506Z,2.00
2022-12-05T06:07:34.560Z,2.00
2022-12-05T06:09:42.751Z,2.00
2022-12-05T06:11:47.736Z,2.00
2022-12-05T06:13:53.338Z,2.10
2022-12-05T06:15:58.579Z,2.00
2022-12-05T06:18:03.591Z,2.00
2022-12-05T06:20:11.518Z,2.10
2022-12-05T06:22:16.563Z,2.00
2022-12-05T06:24:21.957Z,2.10
2022-12-05T06:26:29.600Z,2.10
2022-12-05T06:28:35.528Z,2.10
2022-12-05T06:30:41.975Z,2.00
2022-12-05T06:32:47.149Z,2.10
2022-12-05T06:34:52.153Z,2.10
2022-12-05T06:36:57.147Z,2.00
2022-12-05T06:39:03.398Z,2.10
2022-12-05T06:41:10.075Z,2.10
2022-12-05T06:43:17.635Z,2.10
2022-12-05T06:45:23.635Z,2.10
2022-12-05T06:47:28.832Z,2.10
2022-12-05T06:49:38.059Z,2.10
2022-12-05T06:51:43.390Z,2.10
2022-12-05T06:53:48.470Z,2.10
2022-12-05T06:56:01.889Z,2.10
2022-12-05T06:58:06.894Z,2.10
2022-12-05T07:00:30.116Z,2.10
2022-12-05T07:02:35.329Z,2.10
2022-12-05T07:04:40.345Z,2.10
2022-12-05T07:06:51.011Z,2.10
2022-12-05T07:08:56.548Z,2.10
2022-12-05T07:11:02.239Z,2.10
2022-12-05T07:13:08.586Z,2.10
2022-12-05T07:15:17.722Z,2.10
2022-12-05T07:17:24.237Z,2.10
2022-12-05T07:19:29.345Z,2.10
2022-12-05T07:21:34.320Z,2.10
2022-12-05T07:23:39.344Z,2.10
2022-12-05T07:25:44.533Z,2.10
2022-12-05T07:27:49.492Z,2.20
2022-12-05T07:29:54.563Z,2.20
2022-12-05T07:32:02.355Z,2.20
2022-12-05T07:34:07.462Z,2.10
2022-12-05T07:36:15.577Z,2.10
2022-12-05T07:38:20.677Z,2.20
2022-12-05T07:40:25.833Z,2.20
2022-12-05T07:42:30.843Z,2.20
2022-12-05T07:44:36.046Z,2.20
2022-12-05T07:46:41.811Z,2.20
2022-12-05T07:48:51.267Z,2.20
2022-12-05T07:50:56.215Z,2.30
2022-12-05T07:53:01.166Z,2.30
2022-12-05T07:55:06.745Z,2.30
2022-12-05T07:57:11.849Z,2.30
2022-12-05T07:59:16.820Z,2.30
2022-12-05T08:01:23.957Z,2.30
2022-12-05T08:03:29.854Z,2.40
2022-12-05T08:05:37.828Z,2.40
2022-12-05T08:07:43.370Z,2.30
2022-12-05T08:09:48.363Z,2.30
2022-12-05T08:11:53.445Z,2.40
2022-12-05T08:13:59.885Z,2.40
2022-12-05T08:16:05.557Z,2.40
2022-12-05T08:18:10.639Z,2.40
2022-12-05T08:20:17.193Z,2.50
2022-12-05T08:22:25.115Z,2.50
2022-12-05T08:24:30.181Z,2.50
2022-12-05T08:26:37.065Z,2.50
2022-12-05T08:28:44.099Z,2.50
2022-12-05T08:30:49.708Z,2.50
2022-12-05T08:32:54.765Z,2.50
2022-12-05T08:34:59.705Z,2.50
2022-12-05T08:37:05.689Z,2.50
2022-12-05T08:39:17.111Z,2.50
2022-12-05T08:41:22.059Z,2.50
2022-12-05T08:43:27.362Z,2.50
2022-12-05T08:45:32.347Z,2.50
2022-12-05T08:47:38.023Z,2.60
2022-12-05T08:49:42.977Z,2.60
2022-12-05T08:51:48.730Z,2.60
2022-12-05T08:53:53.975Z,2.60
2022-12-05T08:56:04.272Z,2.60
2022-12-05T08:58:09.979Z,2.60
2022-12-05T09:00:17.186Z,2.60
2022-12-05T09:02:22.232Z,2.70
2022-12-05T09:04:27.393Z,2.70
2022-12-05T09:06:33.070Z,2.70
2022-12-05T09:08:39.268Z,2.70
2022-12-05T09:10:44.242Z,2.70
2022-12-05T09:12:53.142Z,2.70
2022-12-05T09:14:59.033Z,2.70
2022-12-05T09:17:04.383Z,2.70
2022-12-05T09:19:14.740Z,2.70
2022-12-05T09:21:23.790Z,2.70
2022-12-05T09:23:28.529Z,2.70
2022-12-05T09:25:34.008Z,2.70
2022-12-05T09:27:39.736Z,2.70
2022-12-05T09:29:47.575Z,2.70
2022-12-05T09:31:54.271Z,2.70
2022-12-05T09:33:59.456Z,2.70
2022-12-05T09:36:06.296Z,2.70
2022-12-05T09:38:12.991Z,2.70
2022-12-05T09:40:20.468Z,2.80
2022-12-05T09:42:38.952Z,2.70
2022-12-05T09:45:01.926Z,2.80
2022-12-05T09:47:17.746Z,2.80
2022-12-05T09:49:23.758Z,2.80
2022-12-05T09:51:29.547Z,2.80
2022-12-05T09:53:38.451Z,2.80
2022-12-05T09:55:49.722Z,2.80
2022-12-05T09:57:59.732Z,2.80
2022-12-05T10:00:12.714Z,2.80
2022-12-05T10:02:31.007Z,2.80
2022-12-05T10:05:01.013Z,2.90
2022-12-05T10:07:18.609Z,2.80
2022-12-05T10:09:47.810Z,2.80
2022-12-05T10:12:00.312Z,2.90
2022-12-05T10:14:15.833Z,2.90
2022-12-05T10:16:34.226Z,2.90
2022-12-05T10:18:46.426Z,2.90
2022-12-05T10:20:57.695Z,2.90
2022-12-05T10:23:18.611Z,2.90
2022-12-05T10:25:36.449Z,2.90
2022-12-05T10:27:48.343Z,2.90
2022-12-05T10:30:02.326Z,3.00
2022-12-05T10:32:17.730Z,3.00
2022-12-05T10:34:33.919Z,3.00
2022-12-05T10:36:39.794Z,2.90
2022-12-05T10:38:47.304Z,3.00
2022-12-05T10:40:58.202Z,3.00
2022-12-05T10:43:03.228Z,3.00
2022-12-05T10:45:17.529Z,3.00
2022-12-05T10:47:25.263Z,3.00
2022-12-05T10:49:30.863Z,3.00
2022-12-05T10:51:37.825Z,3.00
2022-12-05T10:53:45.930Z,3.10
2022-12-05T10:56:28.286Z,3.10
2022-12-05T10:58:23.205Z,3.10
2022-12-05T11:00:33.740Z,3.10
2022-12-05T11:02:43.030Z,3.10
2022-12-05T11:04:48.926Z,3.10
2022-12-05T11:07:01.743Z,3.10
2022-12-05T11:09:19.900Z,3.10
2022-12-05T11:11:28.933Z,3.10
2022-12-05T11:13:35.174Z,3.10
2022-12-05T11:15:53.798Z,3.20
2022-12-05T11:18:22.557Z,3.20
2022-12-05T11:20:41.412Z,3.30
2022-12-05T11:22:49.507Z,3.40
2022-12-05T11:24:54.495Z,3.40
2022-12-05T11:27:01.573Z,3.50
2022-12-05T11:29:07.441Z,3.60
2022-12-05T11:31:29.668Z,3.40
2022-12-05T11:33:39.492Z,3.40
2022-12-05T11:35:44.429Z,3.40
2022-12-05T11:37:55.747Z,3.40
2022-12-05T11:40:01.766Z,3.40
2022-12-05T11:42:26.283Z,3.40
2022-12-05T11:45:05.347Z,3.30
2022-12-05T11:47:24.271Z,3.40
2022-12-05T11:50:00.381Z,3.40
2022-12-05T11:52:18.000Z,3.40
2022-12-05T11:57:24.075Z,3.40
2022-12-05T12:00:16.807Z,3.40
2022-12-05T12:02:43.902Z,3.40
2022-12-05T12:05:03.993Z,3.40
2022-12-05T12:07:27.640Z,3.40
2022-12-05T12:09:48.188Z,3.40
2022-12-05T12:12:00.698Z,3.40
2022-12-05T12:14:16.800Z,3.40
2022-12-05T12:16:38.563Z,3.40
2022-12-05T12:19:33.078Z,3.40
2022-12-05T12:21:54.740Z,3.50
2022-12-05T12:24:17.002Z,3.50
2022-12-05T12:26:37.366Z,3.40
2022-12-05T12:28:49.318Z,3.50
2022-12-05T12:31:18.790Z,3.50
2022-12-05T12:33:34.196Z,3.50
2022-12-05T12:35:49.166Z,3.50
2022-12-05T12:38:30.616Z,3.40
2022-12-05T12:40:46.749Z,3.40
2022-12-05T12:43:30.963Z,3.40
2022-12-05T12:46:11.447Z,3.40
2022-12-05T12:48:38.754Z,3.40
2022-12-05T12:50:46.210Z,3.40
2022-12-05T12:53:22.075Z,3.40
2022-12-05T12:55:41.101Z,3.40
2022-12-05T12:57:57.960Z,3.40
2022-12-05T13:00:15.272Z,3.40
2022-12-05T13:02:28.755Z,3.40
2022-12-05T13:04:40.478Z,3.40
2022-12-05T13:06:52.519Z,3.40
2022-12-05T13:09:04.880Z,3.40
2022-12-05T13:11:14.884Z,3.40
2022-12-05T13:13:26.882Z,3.40
2022-12-05T13:15:41.234Z,3.40
2022-12-05T13:17:49.992Z,3.40
2022-12-05T13:19:57.694Z,3.30
2022-12-05T13:22:03.583Z,3.40
2022-12-05T13:24:16.297Z,3.40
2022-12-05T13:26:23.944Z,3.40
2022-12-05T13:28:33.624Z,3.40
2022-12-05T13:30:57.775Z,3.40
2022-12-05T13:33:09.834Z,3.40
2022-12-05T13:35:35.064Z,3.40
2022-12-05T13:38:02.711Z,3.40
2022-12-05T13:40:40.037Z,3.40
2022-12-05T13:42:45.290Z,3.40
2022-12-05T13:44:54.480Z,3.40
2022-12-05T13:46:59.507Z,3.40
2022-12-05T13:49:17.487Z,3.40
2022-12-05T13:51:31.985Z,3.40
2022-12-05T13:53:42.541Z,3.40
2022-12-05T13:56:03.126Z,3.40
2022-12-05T13:58:47.697Z,3.40
2022-12-05T14:00:53.070Z,3.40
2022-12-05T14:03:16.816Z,3.40
2022-12-05T14:05:45.517Z,3.40
2022-12-05T14:07:52.419Z,3.50
2022-12-05T14:09:58.325Z,3.40
2022-12-05T14:12:49.585Z,3.40
2022-12-05T14:15:04.588Z,3.50
2022-12-05T14:17:11.035Z,3.40
2022-12-05T14:19:55.855Z,3.40
2022-12-05T14:22:14.895Z,3.50
2022-12-05T14:24:32.691Z,3.50
2022-12-05T14:27:07.472Z,3.50
2022-12-05T14:29:36.653Z,3.40
2022-12-05T14:32:04.853Z,3.50
2022-12-05T14:34:25.231Z,3.50
2022-12-05T14:36:32.356Z,3.40
2022-12-05T14:38:40.218Z,3.50
2022-12-05T14:40:47.724Z,3.50
2022-12-05T14:42:58.902Z,3.40
2022-12-05T14:45:29.023Z,3.40
2022-12-05T14:47:36.935Z,3.50
2022-12-05T14:50:04.713Z,3.50
2022-12-05T14:52:14.448Z,3.50
2022-12-05T14:54:22.072Z,3.50
2022-12-05T14:56:30.583Z,3.50
2022-12-05T14:58:41.834Z,3.50
2022-12-05T15:00:57.014Z,3.50
2022-12-05T15:03:02.595Z,3.50
2022-12-05T15:05:23.087Z,3.50
2022-12-05T15:07:35.600Z,3.50
2022-12-05T15:09:57.646Z,3.50
2022-12-05T15:12:09.343Z,3.40
2022-12-05T15:14:22.446Z,3.50
2022-12-05T15:16:32.036Z,3.50
2022-12-05T15:18:42.604Z,3.50
2022-12-05T15:20:57.131Z,3.50
2022-12-05T15:23:02.443Z,3.50
2022-12-05T15:25:27.738Z,3.50
2022-12-05T15:27:33.029Z,3.40
2022-12-05T15:29:40.039Z,3.50
2022-12-05T15:31:52.981Z,3.50
2022-12-05T15:34:01.220Z,3.50
2022-12-05T15:36:08.297Z,3.50
2022-12-05T15:38:27.762Z,3.50
2022-12-05T15:40:38.633Z,3.50
2022-12-05T15:42:48.176Z,3.50
2022-12-05T15:44:53.239Z,3.50
2022-12-05T15:47:01.730Z,3.50
2022-12-05T15:49:24.131Z,3.50
2022-12-05T15:51:37.653Z,3.50
2022-12-05T15:53:47.547Z,3.50
2022-12-05T15:55:57.907Z,3.50
2022-12-05T15:58:13.090Z,3.40
2022-12-05T16:00:22.698Z,3.50
2022-12-05T16:02:42.830Z,3.40
2022-12-05T16:04:52.487Z,3.50
2022-12-05T16:07:02.037Z,3.50
2022-12-05T16:09:11.924Z,3.50
2022-12-05T16:11:17.900Z,3.50
2022-12-05T16:13:27.729Z,3.50
2022-12-05T16:15:32.961Z,3.50
2022-12-05T16:17:49.208Z,3.50
2022-12-05T16:19:54.269Z,3.50
2022-12-05T16:22:09.431Z,3.50
2022-12-05T16:24:22.759Z,3.50
2022-12-05T16:26:28.178Z,3.50
2022-12-05T16:28:36.425Z,3.50
2022-12-05T16:30:42.251Z,3.50
2022-12-05T16:32:53.755Z,3.50
2022-12-05T16:34:58.738Z,3.50
2022-12-05T16:37:03.925Z,3.50
2022-12-05T16:39:19.427Z,3.50
2022-12-05T16:41:26.247Z,3.50
2022-12-05T16:43:46.354Z,3.50
2022-12-05T16:45:53.790Z,3.50
2022-12-05T16:48:02.772Z,3.50
2022-12-05T16:50:31.860Z,3.50
2022-12-05T16:52:36.871Z,3.50
2022-12-05T16:54:43.013Z,3.40
2022-12-05T16:56:48.443Z,3.40
2022-12-05T16:58:54.251Z,3.50
2022-12-05T17:01:04.953Z,3.50
2022-12-05T17:03:33.832Z,3.50
2022-12-05T17:05:40.118Z,3.50
2022-12-05T17:07:45.117Z,3.50
2022-12-05T17:09:50.829Z,3.40
2022-12-05T17:12:03.506Z,3.50
2022-12-05T17:14:10.122Z,3.50
2022-12-05T17:16:15.124Z,3.50
2022-12-05T17:18:30.996Z,3.50
2022-12-05T17:20:39.608Z,3.50
2022-12-05T17:22:45.007Z,3.50
2022-12-05T17:24:49.975Z,3.40
2022-12-05T17:26:54.910Z,3.40
2022-12-05T17:29:00.260Z,3.50
2022-12-05T17:31:05.220Z,3.50
2022-12-05T17:33:14.715Z,3.50
2022-12-05T17:35:25.286Z,3.40
2022-12-05T17:37:30.235Z,3.40
2022-12-05T17:39:35.170Z,3.40
2022-12-05T17:41:42.090Z,3.40
2022-12-05T17:43:48.293Z,3.40
2022-12-05T17:45:54.629Z,3.40
2022-12-05T17:48:00.632Z,3.40
2022-12-05T17:50:06.047Z,3.40
2022-12-05T17:52:22.767Z,3.40
2022-12-05T17:54:28.713Z,3.40
2022-12-05T17:56:33.647Z,3.40
2022-12-05T17:58:38.933Z,3.40
2022-12-05T18:00:44.737Z,3.40
2022-12-05T18:02:49.977Z,3.40
2022-12-05T18:04:55.115Z,3.40
2022-12-05T18:07:00.199Z,3.40
2022-12-05T18:09:10.012Z,3.40
2022-12-05T18:11:16.823Z,3.40
2022-12-05T18:13:21.833Z,3.40
2022-12-05T18:15:26.880Z,3.40
2022-12-05T18:17:31.897Z,3.40
2022-12-05T18:19:37.486Z,3.40
2022-12-05T18:23:49.027Z,3.40
2022-12-05T18:26:03.295Z,3.40
2022-12-05T18:28:08.597Z,3.40
2022-12-05T18:30:14.783Z,3.40
2022-12-05T18:32:21.591Z,3.40
2022-12-05T18:34:27.196Z,3.40
2022-12-05T18:36:32.180Z,3.40
2022-12-05T18:38:37.894Z,3.40
2022-12-05T18:40:43.212Z,3.40
2022-12-05T18:42:51.143Z,3.40
2022-12-05T18:44:56.501Z,3.50
2022-12-05T18:47:02.190Z,3.50
2022-12-05T18:49:08.035Z,3.40
2022-12-05T18:51:16.414Z,3.40
2022-12-05T18:53:22.372Z,3.40
2022-12-05T18:55:57.770Z,3.50
2022-12-05T18:58:00.072Z,3.50
2022-12-05T19:00:06.013Z,3.50
2022-12-05T19:02:12.458Z,3.50
2022-12-05T19:04:20.683Z,3.50
2022-12-05T19:06:28.441Z,3.50
2022-12-05T19:08:33.285Z,3.50
2022-12-05T19:10:39.101Z,3.50
2022-12-05T19:12:46.434Z,3.50
2022-12-05T19:14:54.382Z,3.50
2022-12-05T19:17:00.633Z,3.50
2022-12-05T19:19:09.278Z,3.50
2022-12-05T19:21:18.062Z,3.50
2022-12-05T19:23:23.216Z,3.50
2022-12-05T19:25:28.350Z,3.50
2022-12-05T19:27:33.681Z,3.60
2022-12-05T19:29:38.817Z,3.60
2022-12-05T19:31:48.600Z,3.50
2022-12-05T19:33:55.773Z,3.50
2022-12-05T19:36:07.193Z,3.50
2022-12-05T19:38:12.655Z,3.50
2022-12-05T19:40:17.904Z,3.50
2022-12-05T19:42:23.124Z,3.50
2022-12-05T19:44:28.483Z,3.60
2022-12-05T19:46:34.653Z,3.60
2022-12-05T19:48:43.085Z,3.60
2022-12-05T19:50:57.488Z,3.60
2022-12-05T19:53:02.534Z,3.60
2022-12-05T19:55:08.533Z,3.60
2022-12-05T19:57:13.578Z,3.60
2022-12-05T19:59:20.175Z,3.60
2022-12-05T20:01:28.044Z,3.50
2022-12-05T20:03:32.854Z,3.50
2022-12-05T20:05:40.506Z,3.60
2022-12-05T20:07:45.641Z,3.60
2022-12-05T20:09:50.893Z,3.50
2022-12-05T20:11:56.290Z,3.60
2022-12-05T20:14:05.141Z,3.60
2022-12-05T20:16:13.212Z,3.60
2022-12-05T20:18:18.383Z,3.60
2022-12-05T20:20:23.521Z,3.60
2022-12-05T20:22:31.289Z,3.60
2022-12-05T20:24:36.419Z,3.60
2022-12-05T20:26:46.836Z,3.60
2022-12-05T20:28:52.631Z,3.60
2022-12-05T20:31:06.176Z,3.60
2022-12-05T20:33:11.195Z,3.60
2022-12-05T20:35:20.995Z,3.60
2022-12-05T20:37:35.382Z,3.60
2022-12-05T20:39:40.915Z,3.60
2022-12-05T20:41:48.044Z,3.60
2022-12-05T20:43:58.490Z,3.60
2022-12-05T20:46:08.002Z,3.60
2022-12-05T20:48:13.913Z,3.60
2022-12-05T20:50:19.882Z,3.60
2022-12-05T20:52:24.897Z,3.60
2022-12-05T20:54:32.509Z,3.60
2022-12-05T20:56:38.654Z,3.60
2022-12-05T20:58:46.727Z,3.70
2022-12-05T21:00:52.331Z,3.60
2022-12-05T21:02:57.430Z,3.70
2022-12-05T21:05:02.425Z,3.70
2022-12-05T21:07:07.494Z,3.60
2022-12-05T21:09:15.958Z,3.70
2022-12-05T21:11:24.313Z,3.70
2022-12-05T21:13:29.287Z,3.70
2022-12-05T21:15:34.277Z,3.70
2022-12-05T21:17:39.355Z,3.70
2022-12-05T21:19:45.532Z,3.70
2022-12-05T21:21:50.645Z,3.70
2022-12-05T21:23:58.219Z,3.70
2022-12-05T21:26:06.620Z,3.80
2022-12-05T21:28:17.559Z,3.80
2022-12-05T21:30:22.817Z,3.80
2022-12-05T21:32:27.833Z,3.80
2022-12-05T21:34:32.839Z,3.80
2022-12-05T21:36:39.292Z,3.80
2022-12-05T21:38:44.285Z,3.80
2022-12-05T21:40:49.246Z,3.80
2022-12-05T21:42:54.202Z,3.80
2022-12-05T21:45:02.019Z,3.80
2022-12-05T21:47:07.058Z,3.80
2022-12-05T21:49:12.114Z,3.80
2022-12-05T21:51:19.338Z,3.80
2022-12-05T21:53:24.696Z,3.80
2022-12-05T21:55:29.751Z,3.80
2022-12-05T21:57:36.457Z,3.80
2022-12-05T21:59:41.519Z,3.80
2022-12-05T22:01:49.121Z,3.80
2022-12-05T22:03:56.072Z,3.80
2022-12-05T22:06:06.896Z,3.80
2022-12-05T22:08:11.928Z,3.80
2022-12-05T22:10:17.400Z,3.80
2022-12-05T22:12:22.683Z,3.80
2022-12-05T22:14:27.971Z,3.80
2022-12-05T22:16:33.825Z,3.80
2022-12-05T22:18:42.021Z,3.80
2022-12-05T22:20:47.323Z,3.70
2022-12-05T22:22:52.296Z,3.70
2022-12-05T22:24:57.447Z,3.70
2022-12-05T22:27:02.575Z,3.80
2022-12-05T22:29:07.539Z,3.80
2022-12-05T22:31:17.972Z,3.80
2022-12-05T22:33:23.050Z,3.80
2022-12-05T22:35:31.485Z,3.80
2022-12-05T22:37:36.776Z,3.80
2022-12-05T22:39:41.701Z,3.80
2022-12-05T22:41:47.969Z,3.80
2022-12-05T22:44:00.092Z,3.80
2022-12-05T22:46:08.738Z,3.80
2022-12-05T22:48:13.740Z,3.80
2022-12-05T22:50:19.038Z,3.80
2022-12-05T22:52:26.622Z,3.70
2022-12-05T22:54:31.738Z,3.70
2022-12-05T22:56:36.791Z,3.80
2022-12-05T22:58:43.300Z,3.70
2022-12-05T23:00:49.042Z,3.70
2022-12-05T23:02:55.916Z,3.70
2022-12-05T23:05:01.071Z,3.80
2022-12-05T23:07:06.183Z,3.80
2022-12-05T23:09:15.111Z,3.80
2022-12-05T23:11:22.153Z,3.70
2022-12-05T23:13:27.334Z,3.70
2022-12-05T23:15:32.473Z,3.80
2022-12-05T23:17:37.993Z,3.70
2022-12-05T23:19:43.075Z,3.70
2022-12-05T23:21:48.208Z,3.80
2022-12-05T23:23:55.783Z,3.70
2022-12-05T23:26:03.521Z,3.80
2022-12-05T23:28:09.267Z,3.80
2022-12-05T23:30:16.910Z,3.70
2022-12-05T23:32:22.076Z,3.70
2022-12-05T23:34:27.213Z,3.80
2022-12-05T23:36:33.120Z,3.70
2022-12-05T23:38:38.717Z,3.80
2022-12-05T23:40:43.827Z,3.80
2022-12-05T23:42:51.526Z,3.80
2022-12-05T23:44:56.636Z,3.80
2022-12-05T23:47:01.824Z,3.70
2022-12-05T23:49:07.527Z,3.70
2022-12-05T23:51:15.385Z,3.80
2022-12-05T23:53:20.309Z,3.80
2022-12-05T23:55:25.473Z,3.80
2022-12-05T23:57:30.749Z,3.80
2022-12-05T23:59:38.491Z,3.80
